sensor_id;sensor_type;location;lat;lon;timestamp;pressure;altitude;pressure_sealevel;temperature;humidity
69836;BME280;57132;51.972;4.450;2022-10-18T00:00:46;102502.75;;;11.69;100.00
69836;BME280;57132;51.972;4.450;2022-10-18T00:03:11;102517.03;;;11.68;100.00
69836;BME280;57132;51.972;4.450;2022-10-18T00:05:37;102513.50;;;11.67;100.00
69836;BME280;57132;51.972;4.450;2022-10-18T00:08:03;102515.31;;;11.67;100.00
69836;BME280;57132;51.972;4.450;2022-10-18T00:10:28;102504.63;;;11.67;100.00
69836;BME280;57132;51.972;4.450;2022-10-18T00:12:53;102518.00;;;11.67;100.00
69836;BME280;57132;51.972;4.450;2022-10-18T00:15:19;102513.69;;;11.64;100.00
69836;BME280;57132;51.972;4.450;2022-10-18T00:17:44;102523.66;;;11.61;100.00
69836;BME280;57132;51.972;4.450;2022-10-18T00:20:10;102522.84;;;11.58;100.00
69836;BME280;57132;51.972;4.450;2022-10-18T00:22:39;102519.41;;;11.56;100.00
69836;BME280;57132;51.972;4.450;2022-10-18T00:25:06;102521.34;;;11.53;100.00
69836;BME280;57132;51.972;4.450;2022-10-18T00:27:32;102519.75;;;11.49;100.00
69836;BME280;57132;51.972;4.450;2022-10-18T00:29:58;102521.75;;;11.44;100.00
69836;BME280;57132;51.972;4.450;2022-10-18T00:32:24;102519.31;;;11.39;100.00
69836;BME280;57132;51.972;4.450;2022-10-18T00:34:49;102523.03;;;11.37;100.00
69836;BME280;57132;51.972;4.450;2022-10-18T00:37:15;102533.22;;;11.28;100.00
69836;BME280;57132;51.972;4.450;2022-10-18T00:39:40;102536.25;;;11.21;100.00
69836;BME280;57132;51.972;4.450;2022-10-18T00:42:05;102538.41;;;11.13;100.00
69836;BME280;57132;51.972;4.450;2022-10-18T00:47:06;102531.66;;;11.04;100.00
69836;BME280;57132;51.972;4.450;2022-10-18T00:49:39;102529.31;;;10.96;100.00
69836;BME280;57132;51.972;4.450;2022-10-18T00:52:10;102534.97;;;10.90;100.00
69836;BME280;57132;51.972;4.450;2022-10-18T00:54:37;102532.41;;;10.87;100.00
69836;BME280;57132;51.972;4.450;2022-10-18T00:57:04;102536.25;;;10.81;100.00
69836;BME280;57132;51.972;4.450;2022-10-18T00:59:30;102531.28;;;10.72;100.00
69836;BME280;57132;51.972;4.450;2022-10-18T01:01:55;102536.97;;;10.65;100.00
69836;BME280;57132;51.972;4.450;2022-10-18T01:04:21;102538.84;;;10.63;100.00
69836;BME280;57132;51.972;4.450;2022-10-18T01:07:18;102534.59;;;10.58;100.00
69836;BME280;57132;51.972;4.450;2022-10-18T01:10:05;102539.09;;;10.56;100.00
69836;BME280;57132;51.972;4.450;2022-10-18T01:12:59;102541.66;;;10.59;100.00
69836;BME280;57132;51.972;4.450;2022-10-18T01:15:35;102543.25;;;10.64;100.00
69836;BME280;57132;51.972;4.450;2022-10-18T01:23:19;102550.06;;;10.71;100.00
69836;BME280;57132;51.972;4.450;2022-10-18T01:25:56;102549.25;;;10.69;100.00
69836;BME280;57132;51.972;4.450;2022-10-18T01:28:30;102541.22;;;10.69;100.00
69836;BME280;57132;51.972;4.450;2022-10-18T01:31:20;102538.56;;;10.69;100.00
69836;BME280;57132;51.972;4.450;2022-10-18T01:33:52;102532.31;;;10.70;100.00
69836;BME280;57132;51.972;4.450;2022-10-18T01:36:32;102533.19;;;10.70;100.00
69836;BME280;57132;51.972;4.450;2022-10-18T01:39:03;102531.28;;;10.72;100.00
69836;BME280;57132;51.972;4.450;2022-10-18T01:41:32;102541.06;;;10.73;100.00
69836;BME280;57132;51.972;4.450;2022-10-18T01:44:01;102534.13;;;10.69;100.00
69836;BME280;57132;51.972;4.450;2022-10-18T01:46:27;102541.31;;;10.67;100.00
69836;BME280;57132;51.972;4.450;2022-10-18T01:48:54;102540.53;;;10.65;100.00
69836;BME280;57132;51.972;4.450;2022-10-18T01:51:31;102548.59;;;10.64;100.00
69836;BME280;57132;51.972;4.450;2022-10-18T01:53:57;102546.91;;;10.61;100.00
69836;BME280;57132;51.972;4.450;2022-10-18T01:56:32;102541.78;;;10.56;100.00
69836;BME280;57132;51.972;4.450;2022-10-18T02:04:51;102549.09;;;10.09;100.00
69836;BME280;57132;51.972;4.450;2022-10-18T02:10:36;102550.97;;;10.07;100.00
69836;BME280;57132;51.972;4.450;2022-10-18T02:13:04;102554.31;;;10.12;100.00
69836;BME280;57132;51.972;4.450;2022-10-18T02:15:33;102545.31;;;10.15;100.00
69836;BME280;57132;51.972;4.450;2022-10-18T02:18:04;102553.22;;;10.18;100.00
69836;BME280;57132;51.972;4.450;2022-10-18T02:20:30;102554.88;;;10.20;100.00
69836;BME280;57132;51.972;4.450;2022-10-18T02:22:58;102559.41;;;10.18;100.00
69836;BME280;57132;51.972;4.450;2022-10-18T02:25:26;102565.06;;;10.10;100.00
69836;BME280;57132;51.972;4.450;2022-10-18T02:27:53;102554.81;;;10.00;100.00
69836;BME280;57132;51.972;4.450;2022-10-18T02:30:22;102563.13;;;9.92;100.00
69836;BME280;57132;51.972;4.450;2022-10-18T02:33:03;102555.44;;;9.84;100.00
69836;BME280;57132;51.972;4.450;2022-10-18T02:35:35;102559.22;;;9.79;100.00
69836;BME280;57132;51.972;4.450;2022-10-18T02:38:03;102555.16;;;9.70;100.00
69836;BME280;57132;51.972;4.450;2022-10-18T02:40:30;102545.53;;;9.66;100.00
69836;BME280;57132;51.972;4.450;2022-10-18T02:42:56;102566.03;;;9.64;100.00
69836;BME280;57132;51.972;4.450;2022-10-18T02:45:23;102555.47;;;9.61;100.00
69836;BME280;57132;51.972;4.450;2022-10-18T02:47:49;102561.81;;;9.58;100.00
69836;BME280;57132;51.972;4.450;2022-10-18T02:50:15;102561.97;;;9.54;100.00
69836;BME280;57132;51.972;4.450;2022-10-18T02:52:40;102560.31;;;9.51;100.00
69836;BME280;57132;51.972;4.450;2022-10-18T02:55:07;102551.69;;;9.45;100.00
69836;BME280;57132;51.972;4.450;2022-10-18T02:57:33;102559.84;;;9.40;100.00
69836;BME280;57132;51.972;4.450;2022-10-18T02:59:58;102565.25;;;9.39;100.00
69836;BME280;57132;51.972;4.450;2022-10-18T03:02:24;102559.97;;;9.37;100.00
69836;BME280;57132;51.972;4.450;2022-10-18T03:04:50;102552.84;;;9.38;100.00
69836;BME280;57132;51.972;4.450;2022-10-18T03:07:15;102553.59;;;9.41;100.00
69836;BME280;57132;51.972;4.450;2022-10-18T03:09:41;102550.88;;;9.43;100.00
69836;BME280;57132;51.972;4.450;2022-10-18T03:12:06;102554.28;;;9.46;100.00
69836;BME280;57132;51.972;4.450;2022-10-18T03:14:31;102555.22;;;9.45;100.00
69836;BME280;57132;51.972;4.450;2022-10-18T03:16:57;102557.09;;;9.43;100.00
69836;BME280;57132;51.972;4.450;2022-10-18T03:19:22;102557.94;;;9.44;100.00
69836;BME280;57132;51.972;4.450;2022-10-18T03:21:47;102566.88;;;9.43;100.00
69836;BME280;57132;51.972;4.450;2022-10-18T03:24:13;102566.88;;;9.43;100.00
69836;BME280;57132;51.972;4.450;2022-10-18T03:26:38;102565.13;;;9.42;100.00
69836;BME280;57132;51.972;4.450;2022-10-18T03:29:04;102557.94;;;9.44;100.00
69836;BME280;57132;51.972;4.450;2022-10-18T03:31:29;102562.41;;;9.43;100.00
69836;BME280;57132;51.972;4.450;2022-10-18T03:33:55;102559.00;;;9.40;100.00
69836;BME280;57132;51.972;4.450;2022-10-18T03:36:20;102565.38;;;9.35;100.00
69836;BME280;57132;51.972;4.450;2022-10-18T03:38:45;102568.06;;;9.34;100.00
69836;BME280;57132;51.972;4.450;2022-10-18T03:41:11;102566.31;;;9.34;100.00
69836;BME280;57132;51.972;4.450;2022-10-18T03:43:36;102571.47;;;9.39;100.00
69836;BME280;57132;51.972;4.450;2022-10-18T03:46:01;102575.75;;;9.43;100.00
69836;BME280;57132;51.972;4.450;2022-10-18T03:48:27;102568.53;;;9.45;100.00
69836;BME280;57132;51.972;4.450;2022-10-18T03:50:52;102580.91;;;9.48;100.00
69836;BME280;57132;51.972;4.450;2022-10-18T03:53:17;102573.69;;;9.50;100.00
69836;BME280;57132;51.972;4.450;2022-10-18T03:55:43;102570.03;;;9.52;100.00
69836;BME280;57132;51.972;4.450;2022-10-18T03:58:08;102559.31;;;9.54;100.00
69836;BME280;57132;51.972;4.450;2022-10-18T04:00:34;102561.13;;;9.53;100.00
69836;BME280;57132;51.972;4.450;2022-10-18T04:02:59;102555.03;;;9.50;100.00
69836;BME280;57132;51.972;4.450;2022-10-18T04:05:25;102560.44;;;9.48;100.00
69836;BME280;57132;51.972;4.450;2022-10-18T04:07:54;102562.28;;;9.46;100.00
69836;BME280;57132;51.972;4.450;2022-10-18T04:10:19;102561.47;;;9.44;100.00
69836;BME280;57132;51.972;4.450;2022-10-18T04:12:45;102565.00;;;9.45;100.00
69836;BME280;57132;51.972;4.450;2022-10-18T04:15:10;102563.16;;;9.47;100.00
69836;BME280;57132;51.972;4.450;2022-10-18T04:17:36;102559.56;;;9.48;100.00
69836;BME280;57132;51.972;4.450;2022-10-18T04:20:01;102555.03;;;9.50;100.00
69836;BME280;57132;51.972;4.450;2022-10-18T04:22:26;102547.94;;;9.50;100.00
69836;BME280;57132;51.972;4.450;2022-10-18T04:24:52;102551.59;;;9.46;100.00
69836;BME280;57132;51.972;4.450;2022-10-18T04:27:17;102552.84;;;9.38;100.00
69836;BME280;57132;51.972;4.450;2022-10-18T04:29:43;102557.59;;;9.29;100.00
69836;BME280;57132;51.972;4.450;2022-10-18T04:32:08;102570.13;;;9.27;100.00
69836;BME280;57132;51.972;4.450;2022-10-18T04:34:34;102575.50;;;9.26;100.00
69836;BME280;57132;51.972;4.450;2022-10-18T04:36:59;102569.19;;;9.28;100.00
69836;BME280;57132;51.972;4.450;2022-10-18T04:39:24;102574.53;;;9.28;100.00
69836;BME280;57132;51.972;4.450;2022-10-18T04:41:49;102582.50;;;9.28;100.00
69836;BME280;57132;51.972;4.450;2022-10-18T04:44:15;102585.09;;;9.30;100.00
69836;BME280;57132;51.972;4.450;2022-10-18T04:46:40;102580.81;;;9.26;100.00
69836;BME280;57132;51.972;4.450;2022-10-18T04:49:05;102574.81;;;9.21;100.00
69836;BME280;57132;51.972;4.450;2022-10-18T04:51:31;102567.97;;;9.14;100.00
69836;BME280;57132;51.972;4.450;2022-10-18T04:53:56;102573.47;;;9.09;100.00
69836;BME280;57132;51.972;4.450;2022-10-18T04:56:21;102580.66;;;9.07;100.00
69836;BME280;57132;51.972;4.450;2022-10-18T04:58:47;102591.34;;;9.05;100.00
69836;BME280;57132;51.972;4.450;2022-10-18T05:01:12;102581.56;;;9.06;100.00
69836;BME280;57132;51.972;4.450;2022-10-18T05:03:37;102578.84;;;9.07;100.00
69836;BME280;57132;51.972;4.450;2022-10-18T05:06:03;102583.34;;;9.05;100.00
69836;BME280;57132;51.972;4.450;2022-10-18T05:08:31;102592.22;;;9.06;100.00
69836;BME280;57132;51.972;4.450;2022-10-18T05:10:56;102594.84;;;9.07;100.00
69836;BME280;57132;51.972;4.450;2022-10-18T05:13:22;102597.44;;;9.09;100.00
69836;BME280;57132;51.972;4.450;2022-10-18T05:15:47;102601.91;;;9.08;100.00
69836;BME280;57132;51.972;4.450;2022-10-18T05:18:12;102601.91;;;9.08;100.00
69836;BME280;57132;51.972;4.450;2022-10-18T05:20:38;102609.13;;;9.05;100.00
69836;BME280;57132;51.972;4.450;2022-10-18T05:23:03;102615.06;;;8.88;100.00
69836;BME280;57132;51.972;4.450;2022-10-18T05:25:28;102618.53;;;8.65;100.00
69836;BME280;57132;51.972;4.450;2022-10-18T05:27:54;102610.00;;;8.55;100.00
69836;BME280;57132;51.972;4.450;2022-10-18T05:30:19;102610.13;;;8.51;100.00
69836;BME280;57132;51.972;4.450;2022-10-18T05:32:45;102609.41;;;8.46;100.00
69836;BME280;57132;51.972;4.450;2022-10-18T05:35:11;102602.47;;;8.42;100.00
69836;BME280;57132;51.972;4.450;2022-10-18T05:37:36;102603.41;;;8.39;100.00
69836;BME280;57132;51.972;4.450;2022-10-18T05:40:02;102606.06;;;8.39;100.00
69836;BME280;57132;51.972;4.450;2022-10-18T05:42:27;102615.00;;;8.38;100.00
69836;BME280;57132;51.972;4.450;2022-10-18T05:44:52;102617.66;;;8.38;100.00
69836;BME280;57132;51.972;4.450;2022-10-18T05:47:18;102612.22;;;8.41;100.00
69836;BME280;57132;51.972;4.450;2022-10-18T05:49:43;102617.34;;;8.47;100.00
69836;BME280;57132;51.972;4.450;2022-10-18T05:52:08;102618.09;;;8.51;100.00
69836;BME280;57132;51.972;4.450;2022-10-18T05:54:34;102612.75;;;8.52;100.00
69836;BME280;57132;51.972;4.450;2022-10-18T05:56:59;102625.03;;;8.56;100.00
69836;BME280;57132;51.972;4.450;2022-10-18T05:59:24;102625.84;;;8.58;100.00
69836;BME280;57132;51.972;4.450;2022-10-18T06:01:50;102623.06;;;8.61;100.00
69836;BME280;57132;51.972;4.450;2022-10-18T06:04:15;102633.66;;;8.63;100.00
69836;BME280;57132;51.972;4.450;2022-10-18T06:06:42;102634.59;;;8.62;100.00
69836;BME280;57132;51.972;4.450;2022-10-18T06:09:07;102640.91;;;8.59;100.00
69836;BME280;57132;51.972;4.450;2022-10-18T06:11:34;102654.25;;;8.58;100.00
69836;BME280;57132;51.972;4.450;2022-10-18T06:14:01;102663.22;;;8.55;100.00
69836;BME280;57132;51.972;4.450;2022-10-18T06:16:26;102646.34;;;8.55;100.00
69836;BME280;57132;51.972;4.450;2022-10-18T06:18:54;102637.56;;;8.53;100.00
69836;BME280;57132;51.972;4.450;2022-10-18T06:21:21;102647.44;;;8.49;100.00
69836;BME280;57132;51.972;4.450;2022-10-18T06:23:49;102669.69;;;8.47;100.00
69836;BME280;57132;51.972;4.450;2022-10-18T06:26:16;102663.59;;;8.43;100.00
69836;BME280;57132;51.972;4.450;2022-10-18T06:28:41;102672.47;;;8.44;100.00
69836;BME280;57132;51.972;4.450;2022-10-18T06:31:08;102665.34;;;8.44;100.00
69836;BME280;57132;51.972;4.450;2022-10-18T06:33:34;102672.34;;;8.47;100.00
69836;BME280;57132;51.972;4.450;2022-10-18T06:36:06;102677.66;;;8.48;100.00
69836;BME280;57132;51.972;4.450;2022-10-18T06:38:33;102682.03;;;8.49;100.00
69836;BME280;57132;51.972;4.450;2022-10-18T06:40:59;102686.34;;;8.53;100.00
69836;BME280;57132;51.972;4.450;2022-10-18T06:43:24;102685.41;;;8.54;100.00
69836;BME280;57132;51.972;4.450;2022-10-18T06:45:50;102670.78;;;8.41;100.00
69836;BME280;57132;51.972;4.450;2022-10-18T06:48:17;102678.00;;;8.36;100.00
69836;BME280;57132;51.972;4.450;2022-10-18T06:50:52;102687.78;;;8.35;100.00
69836;BME280;57132;51.972;4.450;2022-10-18T06:53:18;102693.84;;;8.41;100.00
69836;BME280;57132;51.972;4.450;2022-10-18T06:55:43;102699.81;;;8.49;100.00
69836;BME280;57132;51.972;4.450;2022-10-18T06:58:10;102696.81;;;8.59;100.00
69836;BME280;57132;51.972;4.450;2022-10-18T07:00:36;102692.88;;;8.71;100.00
69836;BME280;57132;51.972;4.450;2022-10-18T07:03:01;102696.94;;;8.81;100.00
69836;BME280;57132;51.972;4.450;2022-10-18T07:05:26;102702.72;;;8.94;100.00
69836;BME280;57132;51.972;4.450;2022-10-18T07:07:52;102709.41;;;9.06;100.00
69836;BME280;57132;51.972;4.450;2022-10-18T07:10:17;102716.13;;;9.18;100.00
69836;BME280;57132;51.972;4.450;2022-10-18T07:12:43;102706.91;;;9.26;100.00
69836;BME280;57132;51.972;4.450;2022-10-18T07:15:08;102711.94;;;9.35;100.00
69836;BME280;57132;51.972;4.450;2022-10-18T07:17:35;102708.06;;;9.44;100.00
69836;BME280;57132;51.972;4.450;2022-10-18T07:20:00;102710.47;;;9.52;100.00
69836;BME280;57132;51.972;4.450;2022-10-18T07:22:28;102724.59;;;9.54;100.00
69836;BME280;57132;51.972;4.450;2022-10-18T07:24:53;102722.50;;;9.62;100.00
69836;BME280;57132;51.972;4.450;2022-10-18T07:27:19;102719.47;;;9.73;100.00
69836;BME280;57132;51.972;4.450;2022-10-18T07:29:44;102731.66;;;9.80;100.00
69836;BME280;57132;51.972;4.450;2022-10-18T07:32:09;102734.03;;;9.88;100.00
69836;BME280;57132;51.972;4.450;2022-10-18T07:34:35;102741.78;;;9.94;100.00
69836;BME280;57132;51.972;4.450;2022-10-18T07:37:01;102742.69;;;9.94;100.00
69836;BME280;57132;51.972;4.450;2022-10-18T07:39:26;102749.56;;;10.00;100.00
69836;BME280;57132;51.972;4.450;2022-10-18T07:41:51;102754.50;;;10.10;100.00
69836;BME280;57132;51.972;4.450;2022-10-18T07:44:17;102751.28;;;10.24;100.00
69836;BME280;57132;51.972;4.450;2022-10-18T07:46:42;102755.31;;;10.36;100.00
69836;BME280;57132;51.972;4.450;2022-10-18T07:49:07;102762.84;;;10.48;100.00
69836;BME280;57132;51.972;4.450;2022-10-18T07:51:32;102772.16;;;10.60;100.00
69836;BME280;57132;51.972;4.450;2022-10-18T07:54:05;102769.06;;;10.71;100.00
69836;BME280;57132;51.972;4.450;2022-10-18T07:56:30;102764.91;;;10.86;100.00
69836;BME280;57132;51.972;4.450;2022-10-18T07:58:55;102765.94;;;11.03;100.00
69836;BME280;57132;51.972;4.450;2022-10-18T08:01:23;102779.66;;;11.16;100.00
69836;BME280;57132;51.972;4.450;2022-10-18T08:03:49;102775.47;;;11.31;100.00
69836;BME280;57132;51.972;4.450;2022-10-18T08:06:16;102772.94;;;11.48;100.00
69836;BME280;57132;51.972;4.450;2022-10-18T08:08:43;102780.09;;;11.68;100.00
69836;BME280;57132;51.972;4.450;2022-10-18T08:11:14;102774.97;;;11.84;100.00
69836;BME280;57132;51.972;4.450;2022-10-18T08:13:40;102777.19;;;11.93;100.00
69836;BME280;57132;51.972;4.450;2022-10-18T08:16:08;102773.38;;;11.99;100.00
69836;BME280;57132;51.972;4.450;2022-10-18T08:18:34;102785.31;;;12.11;100.00
69836;BME280;57132;51.972;4.450;2022-10-18T08:21:01;102788.38;;;12.22;100.00
69836;BME280;57132;51.972;4.450;2022-10-18T08:23:27;102777.09;;;12.34;100.00
69836;BME280;57132;51.972;4.450;2022-10-18T08:25:52;102788.88;;;12.49;100.00
69836;BME280;57132;51.972;4.450;2022-10-18T08:28:18;102791.78;;;12.63;100.00
69836;BME280;57132;51.972;4.450;2022-10-18T08:30:43;102790.22;;;12.76;100.00
69836;BME280;57132;51.972;4.450;2022-10-18T08:33:08;102793.75;;;12.96;100.00
69836;BME280;57132;51.972;4.450;2022-10-18T08:35:34;102793.09;;;13.27;100.00
69836;BME280;57132;51.972;4.450;2022-10-18T08:37:59;102784.28;;;13.42;100.00
69836;BME280;57132;51.972;4.450;2022-10-18T08:40:26;102780.88;;;13.56;100.00
69836;BME280;57132;51.972;4.450;2022-10-18T08:45:39;102780.66;;;13.76;100.00
69836;BME280;57132;51.972;4.450;2022-10-18T08:48:06;102785.72;;;13.83;100.00
69836;BME280;57132;51.972;4.450;2022-10-18T08:50:33;102785.41;;;14.05;100.00
69836;BME280;57132;51.972;4.450;2022-10-18T08:55:54;102789.25;;;14.16;100.00
69836;BME280;57132;51.972;4.450;2022-10-18T08:58:24;102785.38;;;14.22;100.00
69836;BME280;57132;51.972;4.450;2022-10-18T09:01:06;102786.69;;;14.31;100.00
69836;BME280;57132;51.972;4.450;2022-10-18T09:03:54;102786.69;;;14.46;100.00
69836;BME280;57132;51.972;4.450;2022-10-18T09:12:19;102792.69;;;15.29;100.00
69836;BME280;57132;51.972;4.450;2022-10-18T09:20:24;102802.44;;;15.76;100.00
69836;BME280;57132;51.972;4.450;2022-10-18T09:23:12;102807.47;;;15.96;100.00
69836;BME280;57132;51.972;4.450;2022-10-18T09:25:50;102815.97;;;16.60;88.10
69836;BME280;57132;51.972;4.450;2022-10-18T09:31:07;102812.19;;;18.96;83.43
69836;BME280;57132;51.972;4.450;2022-10-18T09:36:14;102825.41;;;20.94;75.23
69836;BME280;57132;51.972;4.450;2022-10-18T09:38:45;102824.84;;;21.85;70.08
69836;BME280;57132;51.972;4.450;2022-10-18T09:41:27;102831.41;;;22.65;65.57
69836;BME280;57132;51.972;4.450;2022-10-18T09:43:59;102834.78;;;23.27;59.86
69836;BME280;57132;51.972;4.450;2022-10-18T09:46:31;102834.47;;;24.25;55.27
69836;BME280;57132;51.972;4.450;2022-10-18T09:49:02;102838.31;;;25.15;54.72
69836;BME280;57132;51.972;4.450;2022-10-18T09:51:36;102838.59;;;26.18;52.31
69836;BME280;57132;51.972;4.450;2022-10-18T09:56:56;102864.28;;;27.10;44.20
69836;BME280;57132;51.972;4.450;2022-10-18T09:59:33;102863.50;;;27.58;45.20
69836;BME280;57132;51.972;4.450;2022-10-18T10:01:59;102852.44;;;28.24;43.67
69836;BME280;57132;51.972;4.450;2022-10-18T10:04:24;102861.63;;;27.83;42.50
69836;BME280;57132;51.972;4.450;2022-10-18T10:06:52;102860.72;;;27.99;41.17
69836;BME280;57132;51.972;4.450;2022-10-18T10:09:25;102859.19;;;27.15;42.37
69836;BME280;57132;51.972;4.450;2022-10-18T10:11:51;102863.13;;;26.54;45.61
69836;BME280;57132;51.972;4.450;2022-10-18T10:14:27;102872.09;;;25.86;46.09
69836;BME280;57132;51.972;4.450;2022-10-18T10:17:00;102861.56;;;25.55;47.43
69836;BME280;57132;51.972;4.450;2022-10-18T10:22:11;102866.56;;;24.78;48.51
69836;BME280;57132;51.972;4.450;2022-10-18T10:24:52;102854.97;;;24.02;50.99
69836;BME280;57132;51.972;4.450;2022-10-18T10:27:19;102866.63;;;23.26;51.02
69836;BME280;57132;51.972;4.450;2022-10-18T10:32:15;102859.16;;;22.19;50.99
69836;BME280;57132;51.972;4.450;2022-10-18T10:34:41;102863.63;;;21.46;51.89
69836;BME280;57132;51.972;4.450;2022-10-18T10:43:00;102883.59;;;21.35;51.39
69836;BME280;57132;51.972;4.450;2022-10-18T10:45:30;102874.75;;;21.75;51.45
69836;BME280;57132;51.972;4.450;2022-10-18T10:48:26;102875.25;;;21.69;50.00
69836;BME280;57132;51.972;4.450;2022-10-18T10:51:31;102881.09;;;21.32;49.84
69836;BME280;57132;51.972;4.450;2022-10-18T10:54:03;102880.22;;;21.31;50.40
69836;BME280;57132;51.972;4.450;2022-10-18T10:56:30;102881.00;;;20.79;53.67
69836;BME280;57132;51.972;4.450;2022-10-18T10:59:12;102884.06;;;20.41;58.07
69836;BME280;57132;51.972;4.450;2022-10-18T11:01:38;102879.72;;;20.27;53.18
69836;BME280;57132;51.972;4.450;2022-10-18T11:04:24;102874.56;;;20.24;53.64
69836;BME280;57132;51.972;4.450;2022-10-18T11:09:43;102879.63;;;19.47;52.62
69836;BME280;57132;51.972;4.450;2022-10-18T11:20:31;102874.69;;;18.80;57.72
69836;BME280;57132;51.972;4.450;2022-10-18T11:23:06;102885.00;;;18.75;59.68
69836;BME280;57132;51.972;4.450;2022-10-18T11:51:22;102867.97;;;17.98;56.05
69836;BME280;57132;51.972;4.450;2022-10-18T11:56:46;102865.34;;;17.83;58.14
69836;BME280;57132;51.972;4.450;2022-10-18T11:59:37;102877.78;;;17.86;58.77
69836;BME280;57132;51.972;4.450;2022-10-18T12:05:09;102866.00;;;17.87;54.65
69836;BME280;57132;51.972;4.450;2022-10-18T12:07:41;102869.97;;;17.81;53.13
69836;BME280;57132;51.972;4.450;2022-10-18T12:10:12;102869.13;;;17.81;53.80
69836;BME280;57132;51.972;4.450;2022-10-18T12:13:00;102870.97;;;17.80;53.42
69836;BME280;57132;51.972;4.450;2022-10-18T12:15:29;102864.34;;;17.72;53.14
69836;BME280;57132;51.972;4.450;2022-10-18T12:17:59;102865.97;;;17.74;53.79
69836;BME280;57132;51.972;4.450;2022-10-18T12:20:37;102867.91;;;17.72;53.41
69836;BME280;57132;51.972;4.450;2022-10-18T12:23:09;102862.69;;;17.69;55.63
69836;BME280;57132;51.972;4.450;2022-10-18T12:25:39;102849.97;;;17.71;56.03
69836;BME280;57132;51.972;4.450;2022-10-18T12:33:34;102857.94;;;17.73;54.96
69836;BME280;57132;51.972;4.450;2022-10-18T12:38:44;102860.78;;;17.71;55.77
69836;BME280;57132;51.972;4.450;2022-10-18T12:41:18;102862.16;;;17.64;56.68
69836;BME280;57132;51.972;4.450;2022-10-18T12:43:49;102860.97;;;17.68;55.52
69836;BME280;57132;51.972;4.450;2022-10-18T12:46:15;102852.22;;;17.64;56.15
69836;BME280;57132;51.972;4.450;2022-10-18T12:48:43;102852.88;;;17.68;57.22
69836;BME280;57132;51.972;4.450;2022-10-18T13:11:59;102851.03;;;17.68;60.56
69836;BME280;57132;51.972;4.450;2022-10-18T13:14:52;102836.25;;;17.74;58.49
69836;BME280;57132;51.972;4.450;2022-10-18T13:23:24;102843.13;;;17.53;61.33
69836;BME280;57132;51.972;4.450;2022-10-18T13:26:07;102840.53;;;17.51;62.56
69836;BME280;57132;51.972;4.450;2022-10-18T13:28:48;102843.44;;;17.61;62.49
69836;BME280;57132;51.972;4.450;2022-10-18T13:31:34;102838.75;;;17.77;60.58
69836;BME280;57132;51.972;4.450;2022-10-18T13:37:02;102838.69;;;19.03;55.77
69836;BME280;57132;51.972;4.450;2022-10-18T13:39:30;102835.19;;;19.49;53.05
69836;BME280;57132;51.972;4.450;2022-10-18T13:44:29;102828.06;;;19.00;54.07
69836;BME280;57132;51.972;4.450;2022-10-18T13:49:47;102834.00;;;18.32;57.42
69836;BME280;57132;51.972;4.450;2022-10-18T13:55:37;102834.75;;;17.70;60.07
69836;BME280;57132;51.972;4.450;2022-10-18T14:06:27;102839.50;;;17.27;57.86
69836;BME280;57132;51.972;4.450;2022-10-18T14:09:02;102835.22;;;17.10;58.09
69836;BME280;57132;51.972;4.450;2022-10-18T14:11:35;102829.38;;;17.03;59.45
69836;BME280;57132;51.972;4.450;2022-10-18T14:14:34;102835.09;;;16.99;60.47
69836;BME280;57132;51.972;4.450;2022-10-18T14:24:33;102828.84;;;16.69;64.16
69836;BME280;57132;51.972;4.450;2022-10-18T14:27:25;102833.03;;;16.61;63.18
69836;BME280;57132;51.972;4.450;2022-10-18T14:30:12;102839.69;;;16.55;64.11
69836;BME280;57132;51.972;4.450;2022-10-18T14:32:43;102826.69;;;16.47;65.12
69836;BME280;57132;51.972;4.450;2022-10-18T14:35:17;102825.81;;;16.47;66.36
69836;BME280;57132;51.972;4.450;2022-10-18T14:37:46;102838.41;;;16.61;64.42
69836;BME280;57132;51.972;4.450;2022-10-18T14:42:49;102839.28;;;16.47;64.24
69836;BME280;57132;51.972;4.450;2022-10-18T14:45:19;102835.84;;;16.45;64.94
69836;BME280;57132;51.972;4.450;2022-10-18T14:47:45;102842.38;;;16.41;66.79
69836;BME280;57132;51.972;4.450;2022-10-18T14:50:24;102826.88;;;16.30;67.31
69836;BME280;57132;51.972;4.450;2022-10-18T14:52:51;102823.81;;;16.22;67.26
69836;BME280;57132;51.972;4.450;2022-10-18T14:55:21;102834.88;;;16.17;69.59
69836;BME280;57132;51.972;4.450;2022-10-18T14:57:48;102830.47;;;16.16;70.76
69836;BME280;57132;51.972;4.450;2022-10-18T15:00:25;102832.31;;;16.16;71.67
69836;BME280;57132;51.972;4.450;2022-10-18T15:02:53;102835.66;;;16.05;72.51
69836;BME280;57132;51.972;4.450;2022-10-18T15:05:22;102839.22;;;16.06;72.86
69836;BME280;57132;51.972;4.450;2022-10-18T15:07:49;102839.69;;;15.98;73.44
69836;BME280;57132;51.972;4.450;2022-10-18T15:10:19;102841.34;;;16.01;72.32
69836;BME280;57132;51.972;4.450;2022-10-18T15:12:46;102834.22;;;16.14;71.11
69836;BME280;57132;51.972;4.450;2022-10-18T15:15:25;102840.94;;;16.21;70.69
69836;BME280;57132;51.972;4.450;2022-10-18T15:17:52;102837.94;;;16.11;70.83
69836;BME280;57132;51.972;4.450;2022-10-18T15:20:26;102846.03;;;15.97;72.20
69836;BME280;57132;51.972;4.450;2022-10-18T15:22:53;102846.78;;;15.85;72.80
69836;BME280;57132;51.972;4.450;2022-10-18T15:25:28;102846.69;;;15.72;72.43
69836;BME280;57132;51.972;4.450;2022-10-18T15:28:00;102850.06;;;15.60;72.99
69836;BME280;57132;51.972;4.450;2022-10-18T15:30:28;102848.88;;;15.49;74.06
69836;BME280;57132;51.972;4.450;2022-10-18T15:32:58;102848.47;;;15.41;74.30
69836;BME280;57132;51.972;4.450;2022-10-18T15:35:30;102841.13;;;15.29;74.55
69836;BME280;57132;51.972;4.450;2022-10-18T15:37:58;102847.81;;;15.22;74.61